Barbados Meteorological Services
Auto gathered TAF list
Powered by Apparatus software
For Flight AA2725
Contact Number 1-(246)-535-0021/2/3/4/5/6
WEB: http://www.barbadosweather.org

**********************************************

2017/07/28 06:57
TAF TLPL 280500Z 2806/2906 09015KT 9999 SCT025


**********************************************
2017/07/28 06:45
TAF TJSJ 280541Z 2806/2906 11003KT P6SM VCSH SCT025 SCT040
FM281400 11005KT P6SM FEW028 SCT060
FM281700 07010KT P6SM VCTS FEW027 SCT040CB
FM282100 10007KT P6SM VCSH SCT030 SCT080


**********************************************
2017/07/28 06:09
TAF TAF TFFR 280500Z 2806/2906 VRB02KT 9999 SCT025
BECMG 2812/2814 11010KT


**********************************************
2017/07/28 06:40
TAF TBPB 280500Z 2806/2906 10014KT 9999 SCT022= TAF TVSA 280500Z 2806/2906 11010KT 9999 SCT020 PROB30
TEMPO 2806/2812 SHRA BKN015 SCT040


**********************************************
2017/07/28 06:12
TAF TAF TAPA 280500Z 2806/2906 12008KT 9999 SCT020 PROB30
TEMPO 2806/2816 SHRA


**********************************************
2017/07/28 06:09
TAF MYNN 280400Z 2806/2906 09004KT 9999 VCTS FEW015CB SCT018


**********************************************
2017/07/27 12:51
TAF MTPP 271100Z 2712/2812 16004KT 8000 FEW018 SCT200
BECMG 2717/2720 30008KT
TEMPO 2722/2804 4800 TSRA BKN014CB OVC040
BECMG 2806/2810 VRB02KT 7000 NSW FEW016


**********************************************
2017/07/28 06:09
TAF MDSD 280400Z 2806/2906 06008KT 9999 FEW016 SCT300


**********************************************
2017/07/28 06:42
TAF KSFB 280539Z 2806/2906 VRB03KT P6SM FEW035 BKN250
FM281500 24006KT P6SM SCT035 SCT250
FM282000 25008KT P6SM VCTS SCT050CB SCT250
FM290000 21006KT P6SM SCT060 BKN250


**********************************************
2017/07/28 09:59
TAF
AMD KPHL 280859Z 2809/2912 07004KT P6SM SCT009 SCT025
TEMPO 2809/2812 5SM BR BKN009
FM281300 05005KT P6SM SCT020 BKN250
FM282100 08006KT P6SM VCSH OVC035 PROB30 2822/2902 4SM -TSRA OVC030CB
FM290200 04009KT 3SM SHRA BKN015 OVC030 PROB30 2902/2908 3/4SM +TSRA BKN008CB


**********************************************
2017/07/28 09:51
TAF
AMD KPBI 280844Z 2809/2906 VRB03KT P6SM VCSH FEW025 SCT250
FM281600 13008KT P6SM VCSH SCT030 SCT060
FM281900 13010KT P6SM VCTS SCT030CB BKN100
FM290100 VRB03KT P6SM SCT030


**********************************************
2017/07/28 09:46
TAF
AMD KOPF 280844Z 2809/2906 VRB03KT P6SM SCT250
FM281600 16008KT P6SM VCSH SCT030 SCT060
FM281900 17008KT P6SM VCTS SCT035CB BKN100
FM290100 VRB03KT P6SM SCT025


**********************************************


**********************************************
2017/07/28 09:46
TAF
AMD KMIA 280844Z 2809/2906 VRB03KT P6SM SCT025 SCT250
FM281600 16008KT P6SM VCSH SCT030 SCT060
FM281900 15008KT P6SM VCTS SCT035CB BKN100
FM290100 VRB03KT P6SM SCT025


**********************************************
2017/07/28 09:00
TAF
AMD KMCO 280900Z 2809/2906 VRB04KT P6SM FEW030 BKN250
FM281500 24006KT P6SM SCT035 SCT250
FM282000 25008KT P6SM VCTS SCT050CB SCT250
FM290000 21006KT P6SM SCT060 BKN250


**********************************************
2017/07/28 08:42
TAF
AMD KJFK 280735Z 2808/2912 VRB04KT P6SM SCT015 SCT040 BKN250
TEMPO 2808/2811 6SM BR BKN015
FM281200 03005KT P6SM FEW020 SCT120 BKN250
FM281500 08006KT P6SM SCT035 BKN250
FM281800 11008KT P6SM SCT040 BKN250
FM290000 08006KT P6SM SCT040 BKN130
FM290500 05008KT 6SM -RA BR BKN035
FM290800 03013G20KT 5SM -RA BR SCT015 OVC035


**********************************************
2017/07/28 09:57
TAF
AMD KJAX 280855Z 2809/2906 26006KT 6SM -RA BR SCT040 BKN070
FM281200 26008KT P6SM SCT030 BKN250
FM290200 VRB04KT P6SM BKN250


**********************************************
2017/07/28 09:51
TAF
AMD KFLL 280844Z 2809/2906 VRB03KT P6SM VCSH SCT025 SCT250
FM281500 14008KT P6SM VCSH SCT030 SCT060
FM281800 14010KT P6SM VCTS SCT035CB BKN100
FM290100 VRB03KT P6SM SCT025


**********************************************
2017/07/28 08:36
TAF
AMD KEWR 280735Z 2808/2912 VRB03KT P6SM SCT012 SCT040 BKN250
TEMPO 2808/2811 BKN012
FM281200 02005KT P6SM FEW020 SCT120 BKN250
FM281500 05006KT P6SM SCT035 BKN250
FM281800 09008KT P6SM SCT040 BKN250
FM290000 05006KT P6SM SCT040 BKN130
FM290500 03008KT 6SM -RA BR BKN035
FM290800 03013G20KT 5SM -RA BR SCT015 OVC035


**********************************************
2017/07/28 09:51
TAF
AMD KCLT 280848Z 2809/2906 17003KT P6SM VCSH FEW040 SCT120
FM282000 22008KT P6SM -TSRA BKN050CB
FM282300 22008KT P6SM -SHRA BKN090 PROB30 2823/2903 4SM TSRA OVC040CB
FM290300 22007KT P6SM VCSH BKN015


**********************************************
2017/07/28 08:52
TAF
AMD KATL 280750Z 2808/2912 20005KT P6SM VCSH SCT080 BKN200
FM281300 25004KT P6SM SCT020 SCT120
FM281500 26006KT P6SM VCSH BKN030
FM281700 28012KT P6SM VCSH BKN050 PROB30 2818/2824 VRB18G24KT 4SM TSRA BKN040CB
FM290400 26008KT P6SM OVC015


**********************************************